WetterOnline ( https://www.wetteronline.de )

Wetter aktuell Ulm

Aktuelles Wetter: Ulm-Mähringen (592m)

6-stündlich | Neueste Meldungen
Ortszeit Temperatur Wetter
Mo, 27.05. 2:00 9.3° C fast wolkenlos
So, 26.05. 20:00 18.3° C leicht bewölkt
So, 26.05. 14:00 17.1° C bedeckt
So, 26.05. 8:00 11.9° C wolkenlos
So, 26.05. 2:00 7.8° C fast wolkenlos
Sa, 25.05. 20:00 13.1° C bedeckt
Sa, 25.05. 14:00 14.7° C leichter Regen
Sa, 25.05. 8:00 10.4° C Regen
Ortszeit Temperatur Wetter
Mo, 27.05. 4:30 7.0° C leicht bewölkt
Mo, 27.05. 4:20 7.0° C leicht bewölkt
Mo, 27.05. 4:10 7.6° C leicht bewölkt
Mo, 27.05. 4:00 7.8° C wolkenlos
Mo, 27.05. 3:50 7.8° C wolkenlos
Mo, 27.05. 3:40 7.8° C wolkenlos
Mo, 27.05. 3:30 7.3° C wolkenlos
Mo, 27.05. 3:00 8.2° C wolkenlos
Mo, 27.05. 2:30 8.5° C fast wolkenlos
Mo, 27.05. 2:00 9.3° C fast wolkenlos
Mo, 27.05. 1:30 9.6° C fast wolkenlos
Ortszeit Relative Feuchte Sichtweite
Mo, 27.05. 2:00 95% 40 km
So, 26.05. 20:00 57% 70 km
So, 26.05. 14:00 61% 45 km
So, 26.05. 8:00 85% 14 km
So, 26.05. 2:00 100% 16 km
Sa, 25.05. 20:00 76% 70 km
Sa, 25.05. 14:00 70% 12 km
Sa, 25.05. 8:00 98% 12 km
Ortszeit Relative Feuchte Sichtweite
Mo, 27.05. 4:30 99% 22 km
Mo, 27.05. 4:20 99% -
Mo, 27.05. 4:10 97% -
Mo, 27.05. 4:00 98% 30 km
Mo, 27.05. 3:50 98% -
Mo, 27.05. 3:40 99% -
Mo, 27.05. 3:30 100% 23 km
Mo, 27.05. 3:00 97% 30 km
Mo, 27.05. 2:30 97% 30 km
Mo, 27.05. 2:00 95% 40 km
Mo, 27.05. 1:30 93% 40 km
Ortszeit Niederschlagsmenge Niederschlagsart
Mo, 27.05. 2:00 0.0 l/m2 in 6 Std. -
So, 26.05. 20:00 0.0 l/m2 in 12 Std. -
So, 26.05. 14:00 0.0 l/m2 in 6 Std. -
So, 26.05. 8:00 0.1 l/m2 in 12 Std. -
So, 26.05. 2:00 0.1 l/m2 in 6 Std. Regen
Sa, 25.05. 20:00 2 l/m2 in 12 Std. Regen
Sa, 25.05. 14:00 0.9 l/m2 in 6 Std. Regen
Sa, 25.05. 8:00 0.5 l/m2 in 12 Std. Regen
Ortszeit Niederschlagsmenge Niederschlagsart
Mo, 27.05. 4:30 0.0 l/m2 in 1 Std. -
Mo, 27.05. 4:20 keine Meldung -
Mo, 27.05. 4:10 keine Meldung -
Mo, 27.05. 4:00 0.0 l/m2 in 1 Std. -
Mo, 27.05. 3:50 keine Meldung -
Mo, 27.05. 3:40 keine Meldung -
Mo, 27.05. 3:30 0.0 l/m2 in 1 Std. -
Mo, 27.05. 3:00 0.0 l/m2 in 1 Std. -
Mo, 27.05. 2:30 0.0 l/m2 in 1 Std. -
Mo, 27.05. 2:00 0.0 l/m2 in 1 Std. -
Mo, 27.05. 1:30 0.0 l/m2 in 1 Std. -
Ortszeit Stärke Spitze Richtung
km/h Bft. km/h Grad Sektor
Mo, 27.05. 2:00 6 1 15 260° W
So, 26.05. 20:00 9 2 19 250° W
So, 26.05. 14:00 7 2 25 240° SW
So, 26.05. 8:00 4 1 7 180° S
So, 26.05. 2:00 6 1 22 290° W
Sa, 25.05. 20:00 18 3 47 330° NW
Sa, 25.05. 14:00 11 2 36 130° SO
Sa, 25.05. 8:00 7 2 18 270° W
Ortszeit Stärke Spitze Richtung
km/h Bft. km/h Grad Sektor
Mo, 27.05. 4:30 4 1 4 250° W
Mo, 27.05. 4:20 4 1 - 250° W
Mo, 27.05. 4:10 2 1 - 240° SW
Mo, 27.05. 4:00 4 1 7 240° SW
Mo, 27.05. 3:50 4 1 - 240° SW
Mo, 27.05. 3:40 6 1 - 260° W
Mo, 27.05. 3:30 6 1 7 260° W
Mo, 27.05. 3:00 4 1 7 270° W
Mo, 27.05. 2:30 4 1 7 250° W
Mo, 27.05. 2:00 6 1 7 260° W
Mo, 27.05. 1:30 6 1 7 250° W
Ortszeit Untergrenze Bedeckung Gattung
total tief tief mittel hoch
Mo, 27.05. 2:00 9000 m 2/8 0/8 - - -
So, 26.05. 20:00 2400 m 3/8 3/8 - - -
So, 26.05. 14:00 1320 m 8/8 8/8 - - -
So, 26.05. 8:00 - 0/8 0/8 - - -
So, 26.05. 2:00 1500 m 1/8 1/8 - - -
Sa, 25.05. 20:00 3000 m 8/8 8/8 - - -
Sa, 25.05. 14:00 570 m 8/8 8/8 - - -
Sa, 25.05. 8:00 1020 m 7/8 7/8 - - -
Ortszeit Bedeckungsgrad in Achtel und Wolkenuntergrenze
Mo, 27.05. 4:30 6(9000m)
Mo, 27.05. 4:20 6(9000m)
Mo, 27.05. 4:10 6(9000m)
Mo, 27.05. 4:00 4(9000m)
Mo, 27.05. 3:50 keine Wolken
Mo, 27.05. 3:40 keine Wolken
Mo, 27.05. 3:30 keine Wolken
Mo, 27.05. 3:00 keine Wolken
Mo, 27.05. 2:30 1(1800m)
Mo, 27.05. 2:00 2(9000m)
Mo, 27.05. 1:30 1(1500m)
Ortszeit Luftdruck NN (hPa) Tendenz (hPa in 3 Std.)
Mo, 27.05. 2:00 1014 - 0,6
So, 26.05. 20:00 1013 - 1,0
So, 26.05. 14:00 1015 - 0,7
So, 26.05. 8:00 1017 + 0,6
So, 26.05. 2:00 1018 0,0
Sa, 25.05. 20:00 1016 + 0,9
Sa, 25.05. 14:00 1015 - 0,4
Sa, 25.05. 8:00 1016 + 1,1
Ortszeit Luftdruck NN (hPa) Tendenz (hPa in 3 Std.)
Mo, 27.05. 4:30 1014 - 1,2
Mo, 27.05. 4:20 1014 keine Meldung
Mo, 27.05. 4:10 1014 keine Meldung
Mo, 27.05. 4:00 1014 - 1,1
Mo, 27.05. 3:50 1014 keine Meldung
Mo, 27.05. 3:40 1014 keine Meldung
Mo, 27.05. 3:30 1014 - 1,0
Mo, 27.05. 3:00 1014 - 1,0
Mo, 27.05. 2:30 1014 - 0,8
Mo, 27.05. 2:00 1014 - 0,6
Mo, 27.05. 1:30 1015 - 0,4
Ortszeit Schneehöhe (cm)
Mo, 27.05. 2:00 -
So, 26.05. 20:00 -
So, 26.05. 14:00 -
So, 26.05. 8:00 -
So, 26.05. 2:00 -
Sa, 25.05. 20:00 -
Sa, 25.05. 14:00 -
Sa, 25.05. 8:00 -
Ortszeit Schneehöhe (cm)
Mo, 27.05. 4:30 -
Mo, 27.05. 4:20 -
Mo, 27.05. 4:10 -
Mo, 27.05. 4:00 -
Mo, 27.05. 3:50 -
Mo, 27.05. 3:40 -
Mo, 27.05. 3:30 -
Mo, 27.05. 3:00 -
Mo, 27.05. 2:30 -
Mo, 27.05. 2:00 -
Mo, 27.05. 1:30 -
Link zu dieser Seite / Seite empfehlen

Das Wetter in ...